Terminal Aerodrome Forecast
Issued by NWS

Home | Current Version | Previous Version | Graphics & Text | Print | Product List | Glossary On
Versions: 1 2 3 4 5 6 7 8 9 10 11 12 13
000
FTUS43 KMPX 120525
TAFAXN
TAF
KAXN 120525Z 1206/1306 32009KT P6SM SKC
     FM120900 31009KT P6SM BKN080
     FM121300 25006KT P6SM SCT020 OVC080
     FM121500 20006KT P6SM OVC020
      TEMPO 1217/1220 6SM -SN BR OVC015
     FM122300 18008KT P6SM SCT025 BKN100=

USA.gov is the U.S. government's official web portal to all federal, state and local government web resources and services.